Time;durP1;ratioP1;P1;durP2;ratioP2;P2;SDS_P1;SDS_P2;PMS_P1;PMS_P2;Temp;Humidity;BMP_temperature;BMP_pressure;BME280_temperature;BME280_humidity;BME280_pressure;Samples;Min_cycle;Max_cycle;Signal;HPM_P1;HPM_P2
2021/12/15 00:01:10;;;;;;;11.63;6.50;;;;;;;-1.05;100.00;95891.97;5056434;28;20032;-68
2021/12/15 00:03:36;;;;;;;10.23;6.50;;;;;;;-1.05;100.00;95886.72;5073075;28;20070;-68
2021/12/15 00:06:13;;;;;;;10.13;6.25;;;;;;;-1.04;100.00;95877.84;5073118;28;20368;-69
2021/12/15 00:08:53;;;;;;;9.80;6.32;;;;;;;-1.05;100.00;95876.19;5072736;28;20433;-68
2021/12/15 00:11:19;;;;;;;8.88;6.32;;;;;;;-1.02;100.00;95883.72;5056149;28;20025;-69
2021/12/15 00:13:46;;;;;;;8.88;6.28;;;;;;;-1.00;100.00;95881.75;5074110;28;20075;-68
2021/12/15 00:16:13;;;;;;;11.75;6.82;;;;;;;-1.01;100.00;95874.84;5072767;28;20026;-69
2021/12/15 00:18:44;;;;;;;10.88;6.68;;;;;;;-0.99;100.00;95875.47;5056002;28;20032;-69
2021/12/15 00:21:13;;;;;;;19.15;6.78;;;;;;;-0.99;100.00;95881.56;5072636;28;20368;-69
2021/12/15 00:23:43;;;;;;;10.60;6.30;;;;;;;-0.97;100.00;95878.78;5042712;28;20044;-69
2021/12/15 00:26:08;;;;;;;12.43;6.85;;;;;;;-0.98;100.00;95891.13;5051811;28;20032;-69
2021/12/15 00:28:37;;;;;;;9.52;6.50;;;;;;;-0.98;100.00;95888.47;5073676;28;20066;-68
2021/12/15 00:31:06;;;;;;;13.32;5.97;;;;;;;-0.98;100.00;95885.84;5072541;28;20111;-68
2021/12/15 00:33:33;;;;;;;13.25;6.25;;;;;;;-0.97;100.00;95890.13;5055547;28;20029;-68
2021/12/15 00:35:59;;;;;;;8.98;6.18;;;;;;;-0.96;100.00;95888.31;5072377;28;20029;-69
2021/12/15 00:38:24;;;;;;;13.70;6.50;;;;;;;-0.96;100.00;95880.41;5073606;28;20046;-69
2021/12/15 00:40:50;;;;;;;14.45;6.63;;;;;;;-0.95;100.00;95882.06;5072301;28;20502;-69
2021/12/15 00:43:16;;;;;;;16.27;6.28;;;;;;;-0.94;100.00;95883.69;5055367;28;20559;-69
2021/12/15 00:45:41;;;;;;;28.80;7.68;;;;;;;-0.94;100.00;95876.63;5072166;28;20479;-68
2021/12/15 00:48:07;;;;;;;16.17;6.35;;;;;;;-0.92;100.00;95886.97;5055702;28;20016;-69
2021/12/15 00:50:35;;;;;;;16.80;6.70;;;;;;;-0.91;100.00;95883.31;5055883;28;20116;-69
2021/12/15 00:53:01;;;;;;;17.33;6.72;;;;;;;-0.92;100.00;95866.72;5055376;28;20114;-68
2021/12/15 00:55:28;;;;;;;38.15;7.53;;;;;;;-0.90;100.00;95863.94;5072238;28;20020;-69
2021/12/15 00:57:55;;;;;;;18.02;6.45;;;;;;;-0.90;100.00;95862.13;5071953;28;20021;-68
2021/12/15 01:00:34;;;;;;;43.22;7.38;;;;;;;-0.87;100.00;95868.81;5058299;28;20021;-68
2021/12/15 01:03:03;;;;;;;27.45;7.10;;;;;;;-0.86;100.00;95875.75;5063961;28;20025;-69
2021/12/15 01:05:34;;;;;;;20.98;7.15;;;;;;;-0.85;100.00;95872.13;5052841;28;20587;-69
2021/12/15 01:08:01;;;;;;;27.17;7.47;;;;;;;-0.85;100.00;95866.88;5067239;28;20048;-68
2021/12/15 01:10:39;;;;;;;40.03;8.00;;;;;;;-0.82;100.00;95873.59;5042027;28;20530;-69
2021/12/15 01:21:27;;;;;;;59.55;8.20;;;;;;;-0.76;100.00;95884.25;5071725;28;20047;-69
2021/12/15 01:23:52;;;;;;;82.57;8.57;;;;;;;-0.76;100.00;95886.88;5071231;28;20044;-68
2021/12/15 01:26:18;;;;;;;58.97;9.30;;;;;;;-0.74;100.00;95891.94;5067288;28;20388;-69
2021/12/15 01:28:43;;;;;;;97.88;9.38;;;;;;;-0.74;100.00;95882.25;5064171;28;20107;-68
2021/12/15 01:31:09;;;;;;;70.07;8.55;;;;;;;-0.73;100.00;95890.94;5054571;28;20372;-69
2021/12/15 01:33:38;;;;;;;98.82;9.00;;;;;;;-0.74;100.00;95884.06;5054617;28;20033;-69
2021/12/15 01:36:16;;;;;;;85.30;9.30;;;;;;;-0.72;100.00;95884.69;5070995;28;20020;-67
2021/12/15 01:38:46;;;;;;;75.30;8.52;;;;;;;-0.71;100.00;95887.16;5071887;28;20017;-68
2021/12/15 01:41:19;;;;;;;38.55;7.60;;;;;;;-0.67;100.00;95890.22;5072474;28;20031;-69
2021/12/15 01:49:17;;;;;;;33.75;7.30;;;;;;;-0.64;100.00;95888.09;5071368;28;20032;-69
2021/12/15 01:51:42;;;;;;;52.80;8.10;;;;;;;-144.43;100.00;64487.81;5072190;28;20024;-69
2021/12/15 01:54:12;;;;;;;63.78;8.63;;;;;;;-144.43;100.00;64487.81;5054286;28;20372;-69
2021/12/15 01:56:37;;;;;;;23.95;7.55;;;;;;;-144.43;100.00;64487.81;5071094;28;20059;-69
2021/12/15 01:59:05;;;;;;;74.57;8.25;;;;;;;-0.59;100.00;95871.75;5054384;28;20028;-68
2021/12/15 02:01:33;;;;;;;44.92;7.20;;;;;;;-144.43;100.00;64487.81;5071085;28;20472;-68
2021/12/15 02:04:01;;;;;;;33.53;6.95;;;;;;;-144.43;100.00;64487.81;5054153;28;20056;-68
2021/12/15 02:06:34;;;;;;;48.17;7.65;;;;;;;-144.43;100.00;64487.81;5070961;28;20035;-69
2021/12/15 02:09:02;;;;;;;;;;;;;;;-144.43;100.00;64487.81;5071360;28;20020;-69
2021/12/15 02:11:27;;;;;;;128.63;8.70;;;;;;;-144.43;100.00;64487.81;5054268;28;20370;-68
2021/12/15 02:13:53;;;;;;;74.20;7.72;;;;;;;-144.43;100.00;64487.81;5053960;28;20119;-68
2021/12/15 02:16:18;;;;;;;84.22;7.53;;;;;;;-144.43;100.00;64487.81;5070801;28;20083;-68
2021/12/15 02:18:45;;;;;;;44.35;7.18;;;;;;;-144.43;100.00;64487.81;5061561;28;20476;-69
2021/12/15 02:21:17;;;;;;;141.32;9.25;;;;;;;-144.43;100.00;64487.81;5054209;28;20025;-68
2021/12/15 02:23:48;;;;;;;135.00;9.00;;;;;;;-144.43;100.00;64487.81;5070386;28;20037;-69
2021/12/15 02:26:25;;;;;;;71.43;7.60;;;;;;;-144.43;100.00;64487.81;5070763;28;20025;-69
2021/12/15 02:28:54;;;;;;;95.88;8.35;;;;;;;-144.43;100.00;64487.81;5070706;28;20024;-68
2021/12/15 02:31:38;;;;;;;44.72;7.65;;;;;;;-144.43;100.00;64487.81;5053612;28;20036;-68
2021/12/15 02:40:01;;;;;;;92.25;7.47;;;;;;;-144.43;100.00;64487.81;4998853;28;20065;-69
2021/12/15 02:42:39;;;;;;;175.30;9.40;;;;;;;-144.43;100.00;64487.81;5070513;28;20037;-68
2021/12/15 02:45:07;;;;;;;222.98;10.85;;;;;;;-144.43;100.00;64487.81;5054342;28;20067;-69
2021/12/15 02:47:35;;;;;;;100.68;6.63;;;;;;;-144.43;100.00;64487.81;5048462;28;20021;-68
2021/12/15 02:50:02;;;;;;;44.85;5.57;;;;;;;-144.43;100.00;64487.81;5071330;28;20449;-69
2021/12/15 02:52:35;;;;;;;115.47;7.90;;;;;;;-144.43;100.00;64487.81;5074186;28;20059;-69
2021/12/15 02:55:00;;;;;;;139.67;7.60;;;;;;;-144.43;100.00;64487.81;5074482;28;20029;-68
2021/12/15 02:57:25;;;;;;;193.52;10.02;;;;;;;-144.43;100.00;64487.81;5074137;28;20556;-69
2021/12/15 03:00:15;;;;;;;184.02;8.57;;;;;;;-144.43;100.00;64487.81;5075353;28;20443;-69
2021/12/15 03:03:24;;;;;;;103.13;7.32;;;;;;;-144.43;100.00;64487.81;5060725;28;20422;-69
2021/12/15 03:05:51;;;;;;;222.77;10.40;;;;;;;-144.43;100.00;64487.81;5069120;28;20037;-68
2021/12/15 03:08:21;;;;;;;194.20;9.60;;;;;;;-144.43;100.00;64487.81;5055052;28;20037;-69
2021/12/15 03:16:21;;;;;;;94.70;7.80;;;;;;;-144.43;100.00;64487.81;5075139;28;20510;-68
2021/12/15 03:18:47;;;;;;;173.57;8.13;;;;;;;-144.43;100.00;64487.81;5068039;28;20028;-68
2021/12/15 03:21:21;;;;;;;55.83;5.63;;;;;;;-144.43;100.00;64487.81;5073846;28;20031;-69
2021/12/15 03:23:58;;;;;;;104.93;7.10;;;;;;;-144.43;100.00;64487.81;5073559;28;20040;-68
2021/12/15 03:26:31;;;;;;;130.27;7.68;;;;;;;-144.43;100.00;64487.81;5056872;28;20028;-69
2021/12/15 03:37:19;;;;;;;137.18;7.68;;;;;;;-144.43;100.00;64487.81;5073887;28;20162;-69
2021/12/15 03:39:46;;;;;;;94.10;7.10;;;;;;;-144.43;100.00;64487.81;5073632;28;20025;-69
2021/12/15 03:42:20;;;;;;;62.58;5.50;;;;;;;-144.43;100.00;64487.81;5073428;28;20493;-69
2021/12/15 03:44:47;;;;;;;144.07;7.22;;;;;;;-144.43;100.00;64487.81;5073572;28;20121;-69
2021/12/15 03:47:20;;;;;;;199.10;9.07;;;;;;;-144.43;100.00;64487.81;5056359;28;20154;-68
2021/12/15 03:49:46;;;;;;;32.60;4.70;;;;;;;-144.43;100.00;64487.81;5073437;28;20105;-68
2021/12/15 03:52:12;;;;;;;158.88;8.63;;;;;;;-144.43;100.00;64487.81;5072966;28;20134;-69
2021/12/15 03:54:42;;;;;;;38.85;5.47;;;;;;;-144.43;100.00;64487.81;5073292;28;20020;-69
2021/12/15 03:57:27;;;;;;;134.05;7.68;;;;;;;-144.43;100.00;64487.81;5073139;28;20022;-69
2021/12/15 03:59:57;;;;;;;163.60;8.32;;;;;;;-144.43;100.00;64487.81;5056288;28;20023;-68
2021/12/15 04:02:28;;;;;;;105.60;6.30;;;;;;;-144.43;100.00;64487.81;5072608;28;20031;-69
2021/12/15 04:04:57;;;;;;;121.22;7.15;;;;;;;-144.43;100.00;64487.81;5072901;28;20028;-68
2021/12/15 04:07:22;;;;;;;100.60;6.35;;;;;;;-144.43;100.00;64487.81;5073040;28;20024;-68
2021/12/15 04:09:49;;;;;;;69.75;5.78;;;;;;;-144.43;100.00;64487.81;5071410;28;20025;-68
2021/12/15 04:12:15;;;;;;;149.00;7.03;;;;;;;-144.43;100.00;64487.81;5060755;28;20430;-68
2021/12/15 04:14:44;;;;;;;262.95;10.10;;;;;;;-144.43;100.00;64487.81;5072804;28;20024;-68
2021/12/15 04:17:26;;;;;;;152.45;8.20;;;;;;;-144.43;100.00;64487.81;5068958;28;20039;-68
2021/12/15 04:19:57;;;;;;;190.80;8.40;;;;;;;-144.43;100.00;64487.81;5070221;28;20451;-68
2021/12/15 04:22:24;;;;;;;68.93;5.93;;;;;;;-144.43;100.00;64487.81;5080076;23;20062;-64
2021/12/15 04:24:51;;;;;;;174.32;8.40;;;;;;;-144.43;100.00;64487.81;5053120;28;20041;-64
2021/12/15 04:27:16;;;;;;;77.20;6.82;;;;;;;-144.43;100.00;64487.81;5053731;28;20035;-64
2021/12/15 04:29:44;;;;;;;93.70;6.60;;;;;;;-144.43;100.00;64487.81;5053001;28;20024;-64
2021/12/15 04:32:15;;;;;;;99.38;6.78;;;;;;;-144.43;100.00;64487.81;5039054;28;20029;-64
2021/12/15 04:34:41;;;;;;;137.32;8.10;;;;;;;-144.43;100.00;64487.81;5056147;28;20020;-64
2021/12/15 04:37:06;;;;;;;114.18;6.43;;;;;;;-144.43;100.00;64487.81;5073844;28;20134;-64
2021/12/15 04:39:31;;;;;;;75.13;6.82;;;;;;;-144.43;100.00;64487.81;5073715;28;20016;-64
